Time;durP1;ratioP1;P1;durP2;ratioP2;P2;SDS_P1;SDS_P2;PMS_P1;PMS_P2;Temp;Humidity;BMP_temperature;BMP_pressure;BME280_temperature;BME280_humidity;BME280_pressure;Samples;Min_cycle;Max_cycle;Signal;HPM_P1;HPM_P2
2021/11/07 00:09:05;;;;;;;7.88;3.30;;;;;;;9.54;66.92;99974.69;5027597;28;20170;-70
2021/11/07 00:11:36;;;;;;;10.55;4.00;;;;;;;9.57;67.41;99977.19;5019821;28;20525;-71
2021/11/07 00:14:03;;;;;;;5.95;4.07;;;;;;;9.57;67.22;99964.03;5027895;28;20048;-71
2021/11/07 00:16:32;;;;;;;7.47;3.72;;;;;;;9.59;67.43;99956.91;5026100;28;20064;-71
2021/11/07 00:21:48;;;;;;;5.25;3.70;;;;;;;9.53;67.92;99946.66;5022871;28;20404;-71
2021/11/07 00:27:02;;;;;;;12.20;5.20;;;;;;;9.52;67.86;99958.09;5026665;28;20034;-70
2021/11/07 00:29:38;;;;;;;11.55;4.40;;;;;;;9.54;68.27;99952.78;5026514;28;20040;-71
2021/11/07 00:32:13;;;;;;;6.85;3.90;;;;;;;9.51;68.43;99950.28;5025484;28;20060;-71
2021/11/07 00:35:09;;;;;;;9.32;5.07;;;;;;;9.49;69.62;99957.38;5007021;28;20050;-70
2021/11/07 00:37:36;;;;;;;10.77;4.45;;;;;;;9.44;70.57;99958.41;5023442;28;20572;-70
2021/11/07 00:40:19;;;;;;;6.95;4.43;;;;;;;9.39;70.05;99956.91;5026278;28;20046;-71
2021/11/07 00:43:12;;;;;;;5.82;3.83;;;;;;;9.34;70.77;99954.47;5013606;28;20037;-70
2021/11/07 00:45:57;;;;;;;8.80;4.75;;;;;;;9.25;71.51;99952.22;5025477;28;20485;-70
2021/11/07 00:48:30;;;;;;;7.15;4.28;;;;;;;9.22;71.86;99934.78;5006879;28;20417;-70
2021/11/07 01:01:24;;;;;;;11.45;4.32;;;;;;;8.65;77.31;99946.72;5014344;28;20059;-69
2021/11/07 01:03:50;;;;;;;6.35;5.30;;;;;;;8.56;77.46;99939.19;5020359;28;20150;-69
2021/11/07 01:06:16;;;;;;;7.68;4.43;;;;;;;8.54;78.41;99922.59;5014679;28;20045;-69
2021/11/07 01:08:41;;;;;;;7.18;4.75;;;;;;;8.49;78.46;99935.06;5006605;28;20046;-70
2021/11/07 01:11:07;;;;;;;12.30;6.32;;;;;;;8.44;78.16;99942.28;5007498;28;20460;-70
2021/11/07 01:13:33;;;;;;;8.93;6.40;;;;;;;8.40;78.59;99946.81;5029727;28;20034;-70
2021/11/07 01:15:59;;;;;;;8.55;5.13;;;;;;;8.28;80.00;99939.34;5029926;28;20107;-69
2021/11/07 01:18:25;;;;;;;9.95;5.15;;;;;;;8.30;80.01;99945.41;5030870;28;20030;-70
2021/11/07 01:20:50;;;;;;;10.52;5.20;;;;;;;8.29;80.48;99943.69;5030316;28;20040;-70
2021/11/07 01:23:32;;;;;;;8.18;5.60;;;;;;;8.24;80.33;99941.22;5031869;28;20412;-69
2021/11/07 01:26:10;;;;;;;11.20;5.78;;;;;;;8.22;81.23;99936.94;5018536;28;20049;-70
2021/11/07 01:28:41;;;;;;;6.88;5.60;;;;;;;8.21;80.55;99938.72;5027212;28;20130;-69
2021/11/07 01:31:06;;;;;;;14.13;6.85;;;;;;;8.16;82.06;99933.63;5027776;28;20038;-70
2021/11/07 01:33:32;;;;;;;13.50;6.47;;;;;;;8.11;82.01;99935.56;5028205;28;20148;-70
2021/11/07 01:38:40;;;;;;;10.25;5.65;;;;;;;8.12;82.54;99921.53;5009938;28;20038;-70
2021/11/07 01:41:31;;;;;;;12.18;6.07;;;;;;;8.10;82.90;99927.75;5009167;28;20390;-70
2021/11/07 01:43:53;;;;;;;7.38;5.18;;;;;;;8.11;82.76;99918.97;5009237;28;20552;-70
2021/11/07 01:46:27;;;;;;;15.73;6.50;;;;;;;8.08;82.37;99904.19;5010140;28;20069;-70
2021/11/07 01:51:21;;;;;;;7.07;5.78;;;;;;;8.03;83.23;99902.66;5009531;28;20042;-70
2021/11/07 01:53:48;;;;;;;11.30;6.45;;;;;;;8.03;82.75;99886.88;5009868;28;20029;-69
2021/11/07 01:56:14;;;;;;;10.07;6.40;;;;;;;8.01;83.66;99912.34;5025607;28;20532;-69
2021/11/07 01:58:42;;;;;;;16.65;7.28;;;;;;;8.00;83.55;99900.09;5024719;28;20034;-69
2021/11/07 02:01:08;;;;;;;13.85;5.85;;;;;;;8.01;83.32;99899.22;4961499;28;20498;-69
2021/11/07 02:03:34;;;;;;;13.02;6.40;;;;;;;8.00;83.05;99887.88;5009119;28;20065;-69
2021/11/07 02:06:02;;;;;;;8.70;5.63;;;;;;;7.99;83.50;99874.78;5007983;28;20624;-68
2021/11/07 02:08:28;;;;;;;7.90;5.80;;;;;;;7.96;83.40;99865.25;5009520;28;20029;-69
2021/11/07 02:10:55;;;;;;;10.93;6.53;;;;;;;7.92;83.52;99864.50;5008619;28;20038;-69
2021/11/07 02:13:21;;;;;;;9.30;5.65;;;;;;;7.94;83.97;99854.78;5009487;28;20527;-68
2021/11/07 02:15:47;;;;;;;7.88;6.05;;;;;;;7.95;84.19;99848.66;5020186;28;20033;-69
2021/11/07 02:18:13;;;;;;;12.63;8.82;;;;;;;7.94;84.16;99854.78;5028413;28;20025;-70
2021/11/07 02:20:41;;;;;;;13.77;5.15;;;;;;;7.90;84.60;99853.22;5026854;28;20109;-70
2021/11/07 02:23:12;;;;;;;11.23;6.35;;;;;;;7.91;84.56;99844.41;5028025;28;20033;-70
2021/11/07 02:25:40;;;;;;;10.02;5.72;;;;;;;7.89;85.13;99853.25;5018130;28;20457;-69
2021/11/07 02:28:06;;;;;;;9.45;6.28;;;;;;;7.88;84.71;99846.31;5007831;28;20050;-69
2021/11/07 02:30:35;;;;;;;7.85;5.60;;;;;;;7.89;84.86;99845.38;5009199;28;20049;-69
2021/11/07 02:33:00;;;;;;;9.68;6.78;;;;;;;7.88;85.10;99864.69;5007775;28;20044;-69
2021/11/07 02:35:27;;;;;;;6.50;5.07;;;;;;;7.90;85.41;99854.97;5016529;28;20045;-69
2021/11/07 02:37:54;;;;;;;8.57;4.85;;;;;;;7.93;85.23;99847.00;5029064;28;20030;-68
2021/11/07 02:40:20;;;;;;;9.95;5.82;;;;;;;7.94;84.82;99846.91;5028170;28;20564;-69
2021/11/07 02:42:46;;;;;;;10.52;5.72;;;;;;;7.98;84.67;99849.47;5028680;28;20108;-68
2021/11/07 02:45:13;;;;;;;5.13;4.40;;;;;;;8.00;84.70;99844.97;5027238;28;20030;-68
2021/11/07 02:47:39;;;;;;;10.18;5.60;;;;;;;8.01;84.68;99838.81;5029470;28;20068;-69
2021/11/07 02:50:05;;;;;;;8.95;6.60;;;;;;;8.02;84.36;99838.75;5034709;28;20038;-69
2021/11/07 02:52:31;;;;;;;8.75;4.65;;;;;;;8.01;84.83;99841.44;5034092;28;20038;-68
2021/11/07 02:54:56;;;;;;;7.47;5.72;;;;;;;8.03;84.37;99832.59;5033774;28;20496;-69
2021/11/07 02:57:22;;;;;;;9.15;6.47;;;;;;;8.03;84.89;99832.59;5032358;28;20038;-69
2021/11/07 02:59:56;;;;;;;9.93;5.97;;;;;;;8.09;84.23;99821.00;5031118;28;20029;-69
2021/11/07 03:02:21;;;;;;;7.72;5.25;;;;;;;8.10;84.61;99828.84;5026309;28;20497;-69
2021/11/07 03:04:47;;;;;;;7.13;5.35;;;;;;;8.12;84.45;99811.25;5028448;28;20033;-69
2021/11/07 03:07:12;;;;;;;8.52;4.63;;;;;;;8.15;83.97;99819.00;5027931;28;20029;-69
2021/11/07 03:09:39;;;;;;;7.22;4.78;;;;;;;8.17;84.16;99813.69;5028442;28;20052;-69
2021/11/07 03:12:06;;;;;;;6.80;5.07;;;;;;;8.19;84.31;99809.22;5027515;28;20042;-69
2021/11/07 03:14:36;;;;;;;9.93;4.78;;;;;;;8.21;84.32;99804.78;5015250;28;20042;-69
2021/11/07 03:17:02;;;;;;;6.47;4.90;;;;;;;8.23;84.32;99816.06;5028082;28;20034;-69
2021/11/07 03:19:28;;;;;;;5.97;4.47;;;;;;;8.24;84.19;99816.94;5026842;28;20041;-68
2021/11/07 03:21:57;;;;;;;6.63;4.88;;;;;;;8.21;84.72;99812.66;5027005;28;20087;-69
2021/11/07 03:24:23;;;;;;;6.75;5.10;;;;;;;8.18;84.10;99795.25;5027276;28;20045;-69
2021/11/07 03:26:49;;;;;;;7.60;5.53;;;;;;;8.17;84.41;99777.78;5024644;28;20025;-69
2021/11/07 03:29:16;;;;;;;6.07;5.28;;;;;;;8.15;85.20;99784.88;5029284;28;20037;-69
2021/11/07 03:34:30;;;;;;;7.60;5.97;;;;;;;8.19;85.12;99793.47;5026653;28;20525;-69
2021/11/07 03:36:58;;;;;;;6.22;4.90;;;;;;;8.22;85.32;99803.00;5027671;28;20521;-69
2021/11/07 03:39:26;;;;;;;6.35;5.28;;;;;;;8.23;84.89;99802.94;5028418;28;20604;-70
2021/11/07 03:41:52;;;;;;;7.40;5.00;;;;;;;8.25;84.27;99782.75;5012617;28;20069;-70
2021/11/07 03:44:19;;;;;;;7.20;4.90;;;;;;;8.24;84.30;99778.38;5020977;28;20030;-70
2021/11/07 03:46:49;;;;;;;9.25;4.75;;;;;;;8.26;84.20;99776.56;5026438;28;20072;-70
2021/11/07 03:49:15;;;;;;;6.97;5.45;;;;;;;8.27;84.14;99780.91;5027180;28;20581;-70
2021/11/07 03:51:41;;;;;;;6.32;5.57;;;;;;;8.28;84.55;99766.84;5013983;28;20045;-69
2021/11/07 03:54:08;;;;;;;7.70;5.30;;;;;;;8.29;84.36;99760.66;5006258;28;20038;-68
2021/11/07 03:56:34;;;;;;;6.60;5.30;;;;;;;8.33;84.28;99762.25;5007574;28;20030;-69
2021/11/07 03:58:59;;;;;;;8.13;5.72;;;;;;;8.32;83.99;99771.06;5007990;28;20064;-69
2021/11/07 04:01:25;;;;;;;5.75;4.70;;;;;;;8.37;84.20;99760.38;5016952;28;20041;-69
2021/11/07 04:03:51;;;;;;;7.18;5.45;;;;;;;8.37;84.36;99769.13;5027731;28;20029;-69
2021/11/07 04:06:17;;;;;;;8.05;6.72;;;;;;;8.39;83.60;99758.53;5026247;28;20041;-69
2021/11/07 04:08:43;;;;;;;7.55;5.43;;;;;;;8.40;84.07;99749.78;5027093;28;20040;-70
2021/11/07 04:11:09;;;;;;;6.68;5.43;;;;;;;8.40;84.23;99733.16;5005419;28;20041;-69
2021/11/07 04:13:38;;;;;;;6.55;5.38;;;;;;;8.33;84.42;99733.38;5007314;28;20045;-69
2021/11/07 04:16:05;;;;;;;10.50;6.28;;;;;;;8.34;84.67;99732.47;5007229;28;20030;-69
2021/11/07 04:18:30;;;;;;;9.90;7.30;;;;;;;8.32;84.82;99742.19;4989469;28;20525;-69
2021/11/07 04:20:56;;;;;;;6.97;5.72;;;;;;;8.34;84.42;99748.22;5011635;28;20038;-69
2021/11/07 04:23:21;;;;;;;6.97;5.63;;;;;;;8.40;84.91;99749.78;5027153;28;20048;-69
2021/11/07 04:25:47;;;;;;;8.63;6.53;;;;;;;8.43;84.75;99740.91;5026728;28;20532;-69
2021/11/07 04:28:12;;;;;;;7.07;6.15;;;;;;;8.47;84.91;99742.50;5025419;28;20032;-69
2021/11/07 04:30:38;;;;;;;6.97;5.93;;;;;;;8.47;84.30;99743.34;5023423;28;20037;-69
2021/11/07 04:33:03;;;;;;;9.48;5.80;;;;;;;8.45;84.43;99741.72;5005556;28;20056;-69
2021/11/07 04:35:29;;;;;;;9.23;5.93;;;;;;;8.47;84.88;99737.25;5006908;28;20763;-70
2021/11/07 04:37:55;;;;;;;6.80;5.78;;;;;;;8.47;84.20;99724.97;5007254;28;20034;-70
2021/11/07 04:40:23;;;;;;;6.03;5.03;;;;;;;8.46;84.59;99723.25;5006271;28;20440;-70
2021/11/07 04:42:49;;;;;;;7.65;5.93;;;;;;;8.50;84.25;99721.34;5026527;28;20090;-69
2021/11/07 04:45:15;;;;;;;7.95;5.45;;;;;;;8.53;84.32;99729.94;5026702;28;20058;-69
2021/11/07 04:47:41;;;;;;;7.10;5.93;;;;;;;8.53;83.96;99705.44;5029181;28;20033;-69
2021/11/07 04:50:07;;;;;;;7.03;5.90;;;;;;;8.50;84.82;99716.94;5029958;28;20508;-69
2021/11/07 04:52:33;;;;;;;7.35;5.95;;;;;;;8.55;84.19;99733.38;5017751;28;20041;-69
2021/11/07 04:54:58;;;;;;;8.95;7.28;;;;;;;8.56;84.28;99716.69;5030619;28;20045;-69
2021/11/07 04:57:24;;;;;;;8.32;6.63;;;;;;;8.57;84.69;99721.03;5030864;28;20061;-69
2021/11/07 04:59:50;;;;;;;7.10;5.90;;;;;;;8.58;84.37;99706.97;5029406;28;20080;-69
2021/11/07 05:02:15;;;;;;;7.50;6.53;;;;;;;8.58;84.41;99698.22;5013096;28;20520;-69
2021/11/07 05:04:41;;;;;;;8.18;6.65;;;;;;;8.62;84.42;99698.97;5010754;28;20030;-69
2021/11/07 05:07:07;;;;;;;6.00;5.40;;;;;;;8.62;83.70;99693.72;5025362;28;20056;-69
2021/11/07 05:09:32;;;;;;;8.95;6.97;;;;;;;8.64;84.26;99686.59;5029661;28;20065;-69
2021/11/07 05:11:58;;;;;;;7.03;5.50;;;;;;;8.64;83.81;99689.22;5028435;28;20503;-69
2021/11/07 05:14:23;;;;;;;7.47;6.05;;;;;;;8.65;84.19;99694.41;5030144;28;20037;-69
2021/11/07 05:16:48;;;;;;;6.80;5.30;;;;;;;8.67;83.98;99682.06;5028436;28;20120;-69
2021/11/07 05:19:14;;;;;;;7.07;5.40;;;;;;;8.66;84.11;99682.13;5029135;28;20060;-69
2021/11/07 05:21:40;;;;;;;6.55;5.10;;;;;;;8.68;83.30;99691.66;5028533;28;20049;-69
2021/11/07 05:24:06;;;;;;;5.97;5.22;;;;;;;8.71;84.04;99698.56;5029772;28;20581;-70
2021/11/07 05:26:33;;;;;;;5.63;5.03;;;;;;;8.70;84.07;99681.94;5028430;28;20080;-69
2021/11/07 05:28:58;;;;;;;7.53;4.95;;;;;;;8.76;83.76;99693.94;5028390;28;20033;-69
2021/11/07 05:31:24;;;;;;;8.95;5.30;;;;;;;8.78;82.93;99694.75;5022921;28;20563;-69
2021/11/07 05:33:50;;;;;;;5.28;4.05;;;;;;;8.76;83.51;99701.84;5009906;28;20030;-69
2021/11/07 05:36:16;;;;;;;5.30;4.22;;;;;;;8.81;84.28;99687.59;5012779;28;20099;-69
2021/11/07 05:38:42;;;;;;;5.60;4.80;;;;;;;8.84;83.94;99683.97;5009690;28;20054;-71
2021/11/07 05:41:07;;;;;;;5.22;4.50;;;;;;;8.85;83.16;99682.19;5012849;28;20037;-69
2021/11/07 05:43:33;;;;;;;6.88;4.55;;;;;;;8.86;83.62;99697.91;5029651;28;20552;-69
2021/11/07 05:45:58;;;;;;;5.57;4.97;;;;;;;8.85;84.11;99709.34;5029268;28;20106;-69
2021/11/07 05:48:23;;;;;;;5.88;4.80;;;;;;;8.92;83.59;99713.41;5028047;28;20033;-69
2021/11/07 05:50:49;;;;;;;6.07;4.63;;;;;;;8.97;83.95;99681.66;5027794;28;20033;-69
2021/11/07 05:53:15;;;;;;;5.68;4.90;;;;;;;8.97;83.39;99673.78;5008787;28;20034;-70
2021/11/07 05:55:40;;;;;;;10.05;4.82;;;;;;;8.95;83.48;99663.31;5008398;28;20408;-70
2021/11/07 05:58:06;;;;;;;6.43;4.72;;;;;;;8.98;83.87;99675.47;5008649;28;20030;-69
2021/11/07 06:00:32;;;;;;;6.80;4.88;;;;;;;8.98;83.81;99659.69;5008378;28;20034;-69
2021/11/07 06:03:00;;;;;;;4.75;4.25;;;;;;;8.98;83.67;99650.06;5015034;28;20038;-69
2021/11/07 06:05:26;;;;;;;6.22;4.93;;;;;;;9.01;83.10;99644.66;5014603;28;20484;-69
2021/11/07 06:07:52;;;;;;;7.30;4.65;;;;;;;9.05;83.71;99642.72;5027737;28;20040;-69
2021/11/07 06:10:18;;;;;;;5.53;4.97;;;;;;;9.08;83.25;99645.22;5028463;28;20041;-70
2021/11/07 06:12:43;;;;;;;7.78;5.30;;;;;;;9.05;83.50;99640.09;5028583;28;20048;-70
2021/11/07 06:15:11;;;;;;;6.40;4.72;;;;;;;9.08;83.00;99644.34;5027523;28;20053;-69
2021/11/07 06:17:36;;;;;;;6.07;5.07;;;;;;;9.10;83.66;99647.78;5029127;28;20031;-70
2021/11/07 06:20:04;;;;;;;7.05;5.43;;;;;;;9.09;83.22;99652.19;5029334;28;20030;-69
2021/11/07 06:22:30;;;;;;;5.43;4.63;;;;;;;9.10;83.75;99653.88;5028063;28;20033;-69
2021/11/07 06:24:56;;;;;;;5.63;4.63;;;;;;;9.12;83.22;99669.59;5028946;28;20044;-70
2021/11/07 06:27:21;;;;;;;7.07;4.70;;;;;;;9.13;82.98;99680.06;5009333;28;20030;-69
2021/11/07 06:29:47;;;;;;;4.97;4.45;;;;;;;9.15;82.98;99677.34;5016246;28;20034;-69
2021/11/07 06:32:12;;;;;;;7.10;4.78;;;;;;;9.14;83.22;99670.38;5026941;28;20088;-69
2021/11/07 06:34:38;;;;;;;6.07;5.47;;;;;;;9.18;83.82;99679.81;5028950;28;20120;-69
2021/11/07 06:37:08;;;;;;;7.03;5.63;;;;;;;9.20;82.95;99691.13;5012355;28;20038;-70
2021/11/07 06:39:34;;;;;;;6.85;4.72;;;;;;;9.20;82.66;99685.88;5009078;28;20041;-70
2021/11/07 06:42:01;;;;;;;5.88;5.28;;;;;;;9.22;83.56;99684.03;4990329;28;20068;-70
2021/11/07 06:44:26;;;;;;;6.57;5.43;;;;;;;9.24;83.46;99695.34;5007536;28;20512;-69
2021/11/07 06:46:52;;;;;;;10.38;5.70;;;;;;;9.26;83.46;99690.88;5023336;28;20528;-69
2021/11/07 06:49:18;;;;;;;6.95;5.10;;;;;;;9.31;82.65;99703.81;5027043;28;20052;-69
2021/11/07 06:51:45;;;;;;;8.77;5.63;;;;;;;9.33;83.01;99691.44;5028074;28;20029;-69
2021/11/07 06:54:12;;;;;;;8.93;6.20;;;;;;;9.33;82.96;99687.03;5028648;28;20079;-70
2021/11/07 06:56:38;;;;;;;8.38;5.38;;;;;;;9.38;83.06;99686.84;5012667;28;20029;-69
2021/11/07 06:59:05;;;;;;;6.55;5.55;;;;;;;9.38;83.07;99686.84;5008951;28;20497;-71
2021/11/07 07:01:31;;;;;;;11.73;6.20;;;;;;;9.40;82.80;99671.81;5007236;28;20045;-69
2021/11/07 07:03:56;;;;;;;5.28;4.38;;;;;;;9.44;82.84;99686.53;5008511;28;20501;-70
2021/11/07 07:06:22;;;;;;;8.68;5.20;;;;;;;9.45;82.69;99689.13;5020356;28;20056;-69
2021/11/07 07:09:10;;;;;;;5.18;4.53;;;;;;;9.49;83.19;99691.59;5027795;28;20060;-69
2021/11/07 07:11:43;;;;;;;5.38;4.68;;;;;;;9.52;82.46;99683.56;5026766;28;20033;-69
2021/11/07 07:14:13;;;;;;;7.05;4.60;;;;;;;9.55;82.07;99681.66;5027562;28;20041;-69
2021/11/07 07:21:57;;;;;;;7.85;6.38;;;;;;;9.64;82.51;99683.81;5027061;28;20606;-69
2021/11/07 07:34:53;;;;;;;14.43;7.95;;;;;;;9.81;81.70;99684.81;5008337;28;20524;-69
2021/11/07 07:37:19;;;;;;;14.68;7.07;;;;;;;9.82;81.84;99684.75;5025274;28;20068;-69
2021/11/07 07:39:44;;;;;;;9.80;5.90;;;;;;;9.86;82.05;99682.81;5027456;28;20060;-69
2021/11/07 07:42:10;;;;;;;8.48;5.22;;;;;;;9.87;81.43;99676.63;5023717;28;20040;-71
2021/11/07 07:44:35;;;;;;;8.18;4.78;;;;;;;9.87;81.33;99687.16;5027211;28;20036;-70
2021/11/07 07:47:01;;;;;;;5.72;5.10;;;;;;;9.83;81.89;99696.13;5024486;28;20781;-69
2021/11/07 07:49:27;;;;;;;6.60;4.95;;;;;;;9.80;82.29;99707.66;5016371;28;20045;-69
2021/11/07 07:51:54;;;;;;;8.15;5.28;;;;;;;9.79;82.35;99700.66;5006949;28;20116;-69
2021/11/07 07:54:20;;;;;;;5.63;4.65;;;;;;;9.78;82.95;99700.75;5007104;28;20092;-69
2021/11/07 07:56:45;;;;;;;5.60;4.43;;;;;;;9.80;82.31;99701.56;5009746;28;20044;-68
2021/11/07 07:59:11;;;;;;;7.57;5.70;;;;;;;9.80;82.79;99701.56;5027022;28;20037;-70
2021/11/07 08:01:36;;;;;;;8.32;5.40;;;;;;;9.81;82.86;99695.34;5020043;28;20041;-70
2021/11/07 08:04:02;;;;;;;6.40;4.88;;;;;;;9.84;82.49;99689.94;5015706;28;20045;-68
2021/11/07 08:06:28;;;;;;;6.47;5.00;;;;;;;9.91;81.82;99695.75;5019278;28;20048;-70
2021/11/07 08:08:53;;;;;;;6.68;4.68;;;;;;;9.93;81.41;99697.41;5016425;28;20187;-70
2021/11/07 08:11:19;;;;;;;7.00;4.20;;;;;;;9.95;81.45;99694.69;5022539;28;20132;-70
2021/11/07 08:13:47;;;;;;;6.82;4.00;;;;;;;9.98;81.42;99684.00;4999341;28;20034;-69
2021/11/07 08:16:14;;;;;;;5.75;4.47;;;;;;;9.98;80.54;99678.75;5017221;28;20030;-69
2021/11/07 08:18:40;;;;;;;8.52;4.68;;;;;;;10.00;80.59;99685.63;5020568;28;20056;-70
2021/11/07 08:21:05;;;;;;;8.02;4.78;;;;;;;10.02;80.53;99701.38;5022642;28;20497;-70
2021/11/07 08:23:32;;;;;;;7.18;4.80;;;;;;;10.04;80.54;99694.22;5022952;28;20037;-70
2021/11/07 08:25:58;;;;;;;9.40;5.03;;;;;;;10.08;80.86;99691.38;5023307;28;20049;-70
2021/11/07 08:28:24;;;;;;;11.07;5.55;;;;;;;10.15;80.68;99697.22;5025383;28;20042;-70
2021/11/07 08:30:53;;;;;;;9.38;5.55;;;;;;;10.15;80.53;99689.31;5012306;28;20041;-70
2021/11/07 08:33:19;;;;;;;14.75;5.78;;;;;;;10.15;80.44;99689.31;5007072;28;20317;-70
2021/11/07 08:35:46;;;;;;;13.73;5.57;;;;;;;10.19;80.40;99708.44;5011419;28;20507;-69
2021/11/07 08:38:25;;;;;;;9.65;5.97;;;;;;;10.22;80.29;99710.94;5026591;28;20107;-70
2021/11/07 08:40:54;;;;;;;11.52;5.65;;;;;;;10.23;79.80;99700.31;5026108;28;20025;-69
2021/11/07 09:05:00;;;;;;;10.68;6.22;;;;;;;10.56;78.21;99714.56;5020678;28;20042;-70
2021/11/07 09:08:15;;;;;;;13.10;7.00;;;;;;;10.56;78.23;99711.91;5025543;28;20041;-70
2021/11/07 09:10:19;;;;;;;10.80;6.00;;;;;;;10.61;77.76;99721.31;5007174;28;20052;-71
2021/11/07 09:12:46;;;;;;;8.85;5.90;;;;;;;10.68;78.20;99721.84;5007261;28;20189;-69
2021/11/07 09:15:14;;;;;;;16.30;8.65;;;;;;;10.70;77.34;99715.56;5011760;28;20037;-72
2021/11/07 09:17:41;;;;;;;15.73;8.30;;;;;;;10.71;76.80;99717.28;5019646;28;20056;-70
2021/11/07 09:20:08;;;;;;;14.15;6.90;;;;;;;10.76;76.58;99703.03;5019635;28;20030;-69
2021/11/07 09:22:44;;;;;;;18.45;7.03;;;;;;;10.81;76.22;99701.84;5005262;28;20501;-71
2021/11/07 09:25:16;;;;;;;12.15;6.55;;;;;;;10.85;75.69;99692.81;5018305;28;20041;-69
2021/11/07 09:27:49;;;;;;;20.73;7.60;;;;;;;10.90;76.34;99693.47;5019678;28;20835;-71
2021/11/07 09:30:25;;;;;;;13.77;6.15;;;;;;;10.94;75.53;99707.34;5017365;28;20069;-70
2021/11/07 09:33:09;;;;;;;13.80;7.38;;;;;;;10.94;75.43;99708.19;5021071;28;20033;-69
2021/11/07 09:38:29;;;;;;;11.90;5.75;;;;;;;10.90;74.89;99714.56;5013398;28;20088;-70
2021/11/07 09:41:12;;;;;;;15.05;7.05;;;;;;;10.93;75.61;99724.94;5002778;28;20041;-71
2021/11/07 09:46:21;;;;;;;15.93;6.85;;;;;;;10.91;75.13;99721.53;4996697;28;20041;-70
2021/11/07 09:48:53;;;;;;;12.25;6.05;;;;;;;10.86;75.39;99726.19;5004038;28;20045;-72
2021/11/07 09:51:21;;;;;;;13.13;6.80;;;;;;;10.84;76.11;99733.31;5004426;28;20561;-71
2021/11/07 09:53:50;;;;;;;18.25;7.38;;;;;;;10.84;75.65;99728.06;5004945;28;20036;-73
2021/11/07 09:56:16;;;;;;;16.95;8.68;;;;;;;10.91;75.78;99734.72;5004354;28;20044;-72
2021/11/07 09:58:46;;;;;;;16.20;7.90;;;;;;;10.93;75.52;99716.19;5003953;28;20030;-72
2021/11/07 10:01:11;;;;;;;18.42;8.05;;;;;;;10.95;75.22;99724.84;5001999;28;20401;-73
2021/11/07 10:03:41;;;;;;;15.85;8.15;;;;;;;10.95;75.47;99725.72;5004047;28;20041;-71
2021/11/07 10:06:25;;;;;;;14.75;8.20;;;;;;;11.03;74.68;99727.13;4998038;28;20084;-73
2021/11/07 10:08:51;;;;;;;15.70;6.43;;;;;;;11.09;73.44;99727.63;5013158;28;20041;-74
2021/11/07 10:11:16;;;;;;;14.60;6.85;;;;;;;11.12;73.21;99730.13;5005027;28;20045;-72
2021/11/07 10:14:21;;;;;;;13.60;6.70;;;;;;;11.14;73.32;99730.03;5002325;28;20140;-72
2021/11/07 10:16:54;;;;;;;17.13;6.43;;;;;;;11.12;72.89;99732.78;4981447;28;20034;-75
2021/11/07 10:21:53;;;;;;;13.98;7.50;;;;;;;11.16;72.58;99730.81;4993101;28;20041;-71
2021/11/07 10:24:24;;;;;;;11.82;5.78;;;;;;;11.21;71.79;99728.78;5001997;28;20037;-72
2021/11/07 10:26:57;;;;;;;22.17;6.70;;;;;;;11.30;72.18;99740.66;5004744;28;20041;-72
2021/11/07 10:29:26;;;;;;;17.98;6.47;;;;;;;11.32;70.87;99725.56;5003517;28;20126;-73
2021/11/07 10:32:03;;;;;;;21.13;5.75;;;;;;;11.33;69.61;99716.72;5000622;28;20115;-73
2021/11/07 10:40:08;;;;;;;16.58;5.60;;;;;;;11.38;68.68;99726.09;5002928;28;20037;-72
2021/11/07 10:45:43;;;;;;;17.55;5.82;;;;;;;11.41;69.34;99718.94;5002802;28;20049;-71
2021/11/07 10:53:42;;;;;;;19.92;7.28;;;;;;;11.49;69.06;99704.38;5002387;28;20052;-72
2021/11/07 10:56:10;;;;;;;13.50;5.30;;;;;;;11.51;67.53;99714.88;5000756;28;20041;-72
2021/11/07 10:58:37;;;;;;;11.23;5.57;;;;;;;11.49;68.26;99711.47;5002427;28;20038;-72
2021/11/07 11:01:10;;;;;;;21.67;5.53;;;;;;;11.51;67.96;99714.88;5000483;28;20033;-70
2021/11/07 11:03:42;;;;;;;14.35;4.60;;;;;;;11.51;69.22;99709.59;5001309;28;20034;-73
2021/11/07 11:06:14;;;;;;;12.05;5.82;;;;;;;11.39;67.75;99704.06;5023069;28;20107;-73
2021/11/07 11:11:41;;;;;;;14.02;5.15;;;;;;;11.40;67.82;99707.53;5007949;28;20417;-73
2021/11/07 11:14:34;;;;;;;11.95;5.47;;;;;;;11.31;68.27;99698.31;5015314;28;20630;-74
2021/11/07 11:20:02;;;;;;;13.45;4.80;;;;;;;11.20;68.52;99705.09;5019539;28;20513;-70
2021/11/07 11:35:46;;;;;;;16.70;6.03;;;;;;;11.13;69.81;99717.78;5019919;28;20040;-71
2021/11/07 11:40:51;;;;;;;19.88;5.10;;;;;;;11.10;68.57;99732.00;5021205;28;20459;-70
2021/11/07 11:43:21;;;;;;;15.52;6.03;;;;;;;11.05;66.03;99726.09;5020550;28;20034;-71
2021/11/07 11:45:54;;;;;;;12.13;4.85;;;;;;;11.10;65.06;99728.47;5020672;28;20034;-71
2021/11/07 11:51:37;;;;;;;16.50;5.15;;;;;;;11.11;64.06;99715.22;5019980;28;20425;-70
2021/11/07 11:56:47;;;;;;;15.80;4.65;;;;;;;11.17;63.72;99707.00;5020736;28;20057;-71
2021/11/07 11:59:35;;;;;;;23.13;7.38;;;;;;;11.21;62.74;99720.00;5019184;28;20082;-70
2021/11/07 12:02:17;;;;;;;15.80;5.80;;;;;;;11.27;62.68;99709.13;5019276;28;20037;-69
2021/11/07 12:11:37;;;;;;;16.83;5.63;;;;;;;11.75;60.32;99697.69;5016739;28;20762;-71
2021/11/07 12:14:28;;;;;;;16.38;4.53;;;;;;;12.00;60.58;99691.91;5019231;28;20041;-69
2021/11/07 12:17:18;;;;;;;18.85;5.68;;;;;;;12.26;59.50;99692.22;5021098;28;20037;-72
2021/11/07 12:19:44;;;;;;;22.73;6.45;;;;;;;12.31;58.88;99679.59;5020408;28;20741;-71
2021/11/07 12:22:23;;;;;;;20.33;6.10;;;;;;;12.31;57.97;99676.09;5010935;28;20527;-71
2021/11/07 12:25:07;;;;;;;18.20;5.47;;;;;;;12.22;58.17;99673.03;5024652;28;20037;-71
2021/11/07 12:27:56;;;;;;;12.35;6.35;;;;;;;12.32;57.63;99675.16;5018891;28;20055;-72
2021/11/07 12:30:30;;;;;;;17.13;5.25;;;;;;;12.39;57.05;99679.13;5011940;28;20046;-71
2021/11/07 12:33:05;;;;;;;19.48;5.55;;;;;;;12.34;56.38;99686.50;5020824;28;20033;-73
2021/11/07 12:41:28;;;;;;;26.73;5.75;;;;;;;12.12;56.30;99671.88;5018564;28;20045;-72
2021/11/07 12:44:01;;;;;;;10.40;4.63;;;;;;;12.10;56.69;99672.88;5019205;28;20037;-71
2021/11/07 12:46:54;;;;;;;21.00;5.70;;;;;;;12.02;57.74;99673.34;5016458;28;20592;-71
2021/11/07 12:49:47;;;;;;;19.63;7.07;;;;;;;12.02;57.78;99674.19;5026817;28;20077;-72
2021/11/07 12:52:16;;;;;;;15.82;5.22;;;;;;;12.05;57.52;99672.31;5014404;28;20049;-70
2021/11/07 12:54:43;;;;;;;15.63;5.57;;;;;;;12.06;56.93;99677.50;5020117;28;20041;-71
2021/11/07 12:57:11;;;;;;;9.68;4.85;;;;;;;12.03;56.36;99677.66;5020747;28;20030;-72
2021/11/07 12:59:48;;;;;;;13.45;5.57;;;;;;;11.92;55.88;99682.72;5019038;28;20044;-72
2021/11/07 13:02:37;;;;;;;15.43;4.43;;;;;;;11.82;57.10;99672.63;5019508;28;20498;-72
2021/11/07 13:05:15;;;;;;;14.55;4.65;;;;;;;11.75;57.65;99670.44;5020328;28;20095;-72
2021/11/07 13:08:05;;;;;;;11.88;4.85;;;;;;;11.68;56.90;99661.13;5021346;28;20103;-73
2021/11/07 13:10:40;;;;;;;16.20;4.85;;;;;;;11.69;57.34;99665.47;5025442;28;20113;-72
2021/11/07 13:26:19;;;;;;;12.10;4.38;;;;;;;11.63;58.46;99660.53;5002240;28;20057;-72
2021/11/07 13:31:56;;;;;;;8.70;4.33;;;;;;;11.56;58.15;99667.94;5003563;28;20054;-71
2021/11/07 13:34:21;;;;;;;18.77;5.95;;;;;;;11.52;58.06;99671.72;5003813;28;20277;-71
2021/11/07 13:36:47;;;;;;;19.92;5.75;;;;;;;11.50;58.35;99665.66;5003506;28;20514;-71
2021/11/07 13:39:23;;;;;;;25.38;8.52;;;;;;;11.49;58.09;99670.06;5003542;28;20698;-70
2021/11/07 13:42:10;;;;;;;16.73;5.38;;;;;;;11.47;58.35;99674.59;5003004;28;20059;-72
2021/11/07 13:44:53;;;;;;;12.88;4.82;;;;;;;11.58;58.45;99672.22;5004113;28;20030;-71
2021/11/07 13:47:19;;;;;;;15.73;5.47;;;;;;;11.63;57.92;99668.47;5002583;28;20061;-70
2021/11/07 13:49:52;;;;;;;12.82;4.88;;;;;;;11.58;57.59;99660.81;5002207;28;20161;-71
2021/11/07 13:52:18;;;;;;;28.38;6.55;;;;;;;11.53;57.99;99653.13;5002860;28;20030;-70
2021/11/07 13:54:45;;;;;;;20.65;5.72;;;;;;;11.49;58.17;99658.66;5001892;28;20038;-71
2021/11/07 13:57:11;;;;;;;15.90;5.45;;;;;;;11.44;58.78;99671.25;5003234;28;20038;-72
2021/11/07 13:59:43;;;;;;;21.17;6.35;;;;;;;11.41;58.57;99667.00;5002062;28;20049;-72
2021/11/07 14:02:24;;;;;;;17.58;5.28;;;;;;;11.32;58.88;99672.78;5005894;28;20493;-70
2021/11/07 14:04:52;;;;;;;10.98;5.35;;;;;;;11.24;59.08;99673.19;5022286;28;20037;-71
2021/11/07 14:07:22;;;;;;;23.23;5.95;;;;;;;11.17;58.81;99669.16;5021542;28;20429;-70
2021/11/07 14:10:03;;;;;;;17.23;5.68;;;;;;;11.13;59.26;99673.78;5023131;28;20035;-71
2021/11/07 14:12:40;;;;;;;13.27;5.57;;;;;;;11.09;59.86;99674.00;5023819;28;20040;-73